Time;durP1;ratioP1;P1;durP2;ratioP2;P2;SDS_P1;SDS_P2;PMS_P1;PMS_P2;Temp;Humidity;BMP_temperature;BMP_pressure;BME280_temperature;BME280_humidity;BME280_pressure;Samples;Min_cycle;Max_cycle;Signal;HPM_P1;HPM_P2
2022/01/25 00:26:29;;;;;;;8.95;6.70;;;-3.30;98.80;;;;;;4971709;28;20422;-78
2022/01/25 00:29:13;;;;;;;9.43;7.85;;;-3.30;98.50;;;;;;4993818;28;20503;-76
2022/01/25 00:31:43;;;;;;;7.15;6.50;;;-3.30;98.60;;;;;;4975868;28;20106;-75
2022/01/25 00:34:17;;;;;;;8.45;6.72;;;-3.40;98.50;;;;;;4976306;28;20595;-76
2022/01/25 00:36:44;;;;;;;11.30;8.30;;;-3.30;98.30;;;;;;4993318;28;20043;-73
2022/01/25 00:39:11;;;;;;;15.32;7.40;;;-3.30;98.20;;;;;;4993646;28;20050;-74
2022/01/25 00:41:38;;;;;;;12.38;7.65;;;-3.40;98.40;;;;;;4993787;28;20065;-75
2022/01/25 00:44:06;;;;;;;11.63;6.82;;;-3.40;98.60;;;;;;4976018;28;20058;-77
2022/01/25 00:46:33;;;;;;;9.88;7.53;;;-3.40;98.50;;;;;;4960255;28;20046;-75
2022/01/25 00:49:03;;;;;;;12.90;8.13;;;-3.40;98.70;;;;;;4993633;28;20093;-73
2022/01/25 00:54:10;;;;;;;11.35;7.97;;;-3.40;98.70;;;;;;4993580;28;20046;-76
2022/01/25 00:56:44;;;;;;;10.57;8.18;;;-3.40;98.70;;;;;;4993884;28;20046;-75
2022/01/25 00:59:16;;;;;;;10.43;7.13;;;-3.20;99.00;;;;;;4993476;28;20478;-76
2022/01/25 01:01:45;;;;;;;10.77;7.32;;;-3.30;98.10;;;;;;4993425;28;20501;-74
2022/01/25 01:04:12;;;;;;;11.90;8.23;;;-3.20;98.10;;;;;;4993482;28;20042;-74
2022/01/25 01:06:42;;;;;;;10.25;7.95;;;-3.20;98.30;;;;;;4993375;28;20038;-73
2022/01/25 01:09:11;;;;;;;11.48;7.97;;;-3.00;98.20;;;;;;4971523;28;20046;-74
2022/01/25 01:11:56;;;;;;;16.67;11.32;;;-2.90;98.10;;;;;;4993430;28;20042;-75
2022/01/25 01:14:52;;;;;;;23.67;13.40;;;-3.10;99.20;;;;;;4951424;28;1214677;-74
2022/01/25 01:32:04;;;;;;;25.15;15.70;;;-3.40;99.90;;;;;;4976725;28;20526;-77
2022/01/25 01:34:48;;;;;;;20.65;14.38;;;-3.50;99.90;;;;;;4983924;28;20392;-76
2022/01/25 01:45:08;;;;;;;24.40;14.73;;;-4.00;99.90;;;;;;4993995;28;20050;-75
2022/01/25 01:47:47;;;;;;;22.85;13.43;;;-3.90;99.90;;;;;;4994164;28;20042;-73
2022/01/25 01:50:27;;;;;;;24.08;14.45;;;-3.80;99.90;;;;;;4993516;28;20043;-74
2022/01/25 01:52:55;;;;;;;23.95;14.60;;;-3.70;99.90;;;;;;4994095;28;20030;-74
2022/01/25 01:55:24;;;;;;;20.38;13.88;;;-3.70;99.90;;;;;;4993633;28;20038;-74
2022/01/25 01:57:54;;;;;;;26.08;14.82;;;-3.80;99.90;;;;;;4993772;28;20456;-74
2022/01/25 02:00:44;;;;;;;22.92;15.32;;;-3.90;99.90;;;;;;4976298;28;20117;-76
2022/01/25 02:03:12;;;;;;;17.98;13.07;;;-3.90;99.90;;;;;;4992489;28;20058;-74
2022/01/25 02:05:40;;;;;;;23.27;14.30;;;-3.90;99.90;;;;;;4993615;28;20050;-75
2022/01/25 02:08:07;;;;;;;26.42;14.02;;;-3.90;99.90;;;;;;4993067;28;20062;-75
2022/01/25 02:10:36;;;;;;;19.13;12.93;;;-3.80;99.90;;;;;;4975834;28;20042;-75
2022/01/25 02:13:08;;;;;;;23.23;13.18;;;-3.70;99.90;;;;;;4993451;28;20065;-75
2022/01/25 02:15:37;;;;;;;17.80;13.57;;;-4.10;99.90;;;;;;4993179;28;20057;-75
2022/01/25 02:23:51;;;;;;;20.52;13.25;;;-4.20;99.90;;;;;;4993178;28;20046;-72
2022/01/25 02:26:18;;;;;;;17.90;12.07;;;-4.20;99.90;;;;;;4975145;28;20498;-74
2022/01/25 02:28:45;;;;;;;21.75;13.07;;;-4.10;99.90;;;;;;4992682;28;20038;-74
2022/01/25 02:31:15;;;;;;;28.63;14.75;;;-4.00;99.90;;;;;;4993026;28;20403;-74
2022/01/25 02:33:43;;;;;;;24.73;15.48;;;-4.00;99.90;;;;;;4992870;28;20070;-72
2022/01/25 02:36:15;;;;;;;22.88;13.18;;;-4.20;99.90;;;;;;4993151;28;20394;-74
2022/01/25 02:38:42;;;;;;;20.17;13.82;;;-4.10;99.90;;;;;;4975784;28;20379;-73
2022/01/25 02:41:10;;;;;;;19.90;13.18;;;-4.10;99.90;;;;;;4992506;28;20046;-73
2022/01/25 02:43:37;;;;;;;20.63;13.95;;;-4.00;99.90;;;;;;4992875;28;20053;-74
2022/01/25 02:46:23;;;;;;;20.95;13.60;;;-4.20;99.90;;;;;;4993098;28;20874;-75
2022/01/25 02:48:59;;;;;;;24.90;13.50;;;-4.20;99.90;;;;;;4959271;28;20507;-74
2022/01/25 02:51:42;;;;;;;24.70;12.25;;;-4.40;99.90;;;;;;4992628;28;20121;-74
2022/01/25 02:54:10;;;;;;;20.77;11.32;;;-4.40;99.90;;;;;;4992653;28;20406;-73
2022/01/25 02:56:40;;;;;;;19.30;12.52;;;-4.50;99.90;;;;;;4975212;28;20513;-74
2022/01/25 02:59:07;;;;;;;21.48;12.65;;;-4.30;99.90;;;;;;4975247;28;20049;-74
2022/01/25 03:01:35;;;;;;;18.63;12.15;;;-4.50;99.90;;;;;;4992798;28;20034;-76
2022/01/25 03:04:04;;;;;;;21.08;12.88;;;-4.40;99.90;;;;;;4992384;28;20380;-75
2022/01/25 03:06:31;;;;;;;21.88;13.73;;;-4.30;99.90;;;;;;4975130;28;20043;-75
2022/01/25 03:08:59;;;;;;;23.73;13.18;;;-4.20;99.90;;;;;;4975195;28;20054;-75
2022/01/25 03:11:27;;;;;;;21.25;12.85;;;-4.40;99.90;;;;;;4992355;28;20053;-74
2022/01/25 03:13:57;;;;;;;20.83;12.38;;;-4.40;99.90;;;;;;4992378;28;20050;-73
2022/01/25 03:19:03;;;;;;;18.83;11.95;;;-4.40;99.90;;;;;;4992166;28;20104;-75
2022/01/25 03:23:58;;;;;;;16.70;11.02;;;-4.20;99.90;;;;;;4992143;28;20042;-75
2022/01/25 03:26:26;;;;;;;18.17;11.18;;;-4.20;99.90;;;;;;4992113;28;20038;-76
2022/01/25 03:28:55;;;;;;;17.88;11.88;;;-4.10;99.90;;;;;;4992221;28;20058;-76
2022/01/25 03:31:23;;;;;;;19.58;12.82;;;-4.20;99.90;;;;;;4974805;28;20038;-76
2022/01/25 03:33:50;;;;;;;18.95;11.88;;;-4.40;99.90;;;;;;4992020;28;20076;-77
2022/01/25 03:36:18;;;;;;;17.75;12.68;;;-4.40;99.90;;;;;;4992238;28;20490;-78
2022/01/25 03:38:47;;;;;;;20.35;12.65;;;-4.50;99.90;;;;;;4974696;28;20046;-74
2022/01/25 03:41:14;;;;;;;18.02;12.02;;;-4.50;99.90;;;;;;4992085;28;20066;-78
2022/01/25 03:43:44;;;;;;;20.95;12.73;;;-4.50;99.90;;;;;;4974413;28;20402;-77
2022/01/25 03:46:21;;;;;;;18.38;11.68;;;-4.40;99.90;;;;;;4991955;28;20127;-79
2022/01/25 03:51:34;;;;;;;17.42;11.80;;;-4.40;99.90;;;;;;4974278;28;20406;-76
2022/01/25 03:54:01;;;;;;;16.88;10.73;;;-4.40;99.90;;;;;;4974629;28;20050;-78
2022/01/25 03:56:29;;;;;;;18.50;11.23;;;-4.60;99.90;;;;;;4974788;28;20506;-78
2022/01/25 03:58:56;;;;;;;17.85;11.43;;;-4.50;99.90;;;;;;4991707;28;20081;-77
2022/01/25 04:01:24;;;;;;;18.85;11.30;;;-4.60;99.90;;;;;;4991747;28;20463;-75
2022/01/25 04:04:01;;;;;;;19.13;11.20;;;-4.60;99.90;;;;;;4991579;28;20042;-74
2022/01/25 04:06:31;;;;;;;13.60;9.93;;;-4.50;99.90;;;;;;4991760;28;20042;-76
2022/01/25 04:09:00;;;;;;;19.60;11.30;;;-4.40;99.90;;;;;;4991904;28;20056;-74
2022/01/25 04:11:28;;;;;;;13.68;9.90;;;-4.50;99.90;;;;;;4991678;28;20046;-75
2022/01/25 04:13:57;;;;;;;14.65;10.48;;;-4.50;99.90;;;;;;4991543;28;20043;-76
2022/01/25 04:16:31;;;;;;;20.00;10.32;;;-4.50;99.90;;;;;;4991761;28;20061;-75
2022/01/25 04:26:53;;;;;;;12.25;9.55;;;-4.50;99.90;;;;;;4991880;28;20045;-75
2022/01/25 04:29:22;;;;;;;13.98;10.05;;;-4.50;99.90;;;;;;4974225;28;20078;-73
2022/01/25 04:31:50;;;;;;;13.95;10.52;;;-4.60;99.90;;;;;;4974105;28;20045;-74
2022/01/25 04:53:22;;;;;;;23.42;13.00;;;-4.70;99.90;;;;;;4955101;28;20066;-74
2022/01/25 04:58:25;;;;;;;23.23;14.40;;;-4.80;99.90;;;;;;4994699;28;20046;-73
2022/01/25 05:00:53;;;;;;;26.52;14.65;;;-4.70;99.90;;;;;;4994814;28;20046;-76
2022/01/25 05:03:29;;;;;;;26.25;14.30;;;-4.70;99.90;;;;;;4994592;28;20034;-74
2022/01/25 05:06:04;;;;;;;21.42;11.68;;;-4.80;99.90;;;;;;4994782;28;20490;-73
2022/01/25 05:08:37;;;;;;;19.88;11.60;;;-4.80;99.90;;;;;;4993543;28;20050;-73
2022/01/25 05:11:17;;;;;;;18.88;12.20;;;-4.90;99.90;;;;;;4977652;28;20049;-73
2022/01/25 05:13:59;;;;;;;19.38;11.50;;;-5.10;99.90;;;;;;4994334;28;20053;-76
2022/01/25 05:19:10;;;;;;;16.05;11.68;;;-5.10;99.90;;;;;;4993856;28;20138;-73
2022/01/25 05:24:23;;;;;;;18.65;10.90;;;-5.00;99.90;;;;;;4994220;28;20050;-75
2022/01/25 05:26:50;;;;;;;17.13;11.40;;;-4.90;99.90;;;;;;4994494;28;20060;-73
2022/01/25 05:29:17;;;;;;;22.27;12.98;;;-4.80;99.90;;;;;;4993929;28;20048;-75
2022/01/25 05:31:45;;;;;;;25.60;15.45;;;-4.80;99.90;;;;;;4994677;28;20052;-78
2022/01/25 05:34:13;;;;;;;29.67;16.23;;;-4.80;99.90;;;;;;4994293;28;20096;-78
2022/01/25 05:36:42;;;;;;;25.10;15.88;;;-5.10;99.90;;;;;;4994251;28;20406;-76
2022/01/25 05:39:18;;;;;;;24.30;15.63;;;-5.10;99.90;;;;;;4993863;28;20112;-75
2022/01/25 05:41:53;;;;;;;28.48;16.13;;;-5.00;99.90;;;;;;4977003;28;20042;-75
2022/01/25 05:44:41;;;;;;;27.67;14.88;;;-4.90;99.90;;;;;;4994027;28;20608;-75
2022/01/25 05:47:13;;;;;;;31.25;14.82;;;-4.80;99.90;;;;;;4994422;28;20048;-75
2022/01/25 05:49:45;;;;;;;23.60;14.77;;;-5.10;99.90;;;;;;4976125;28;20074;-75
2022/01/25 05:52:12;;;;;;;25.33;12.77;;;-5.20;99.90;;;;;;4994104;28;20478;-75
2022/01/25 05:54:40;;;;;;;17.75;11.55;;;-5.20;99.90;;;;;;4993555;28;20046;-74
2022/01/25 05:57:08;;;;;;;21.63;13.18;;;-5.40;99.90;;;;;;4993946;28;20490;-76
2022/01/25 05:59:37;;;;;;;20.10;12.52;;;-5.50;99.90;;;;;;4993617;28;20042;-74
2022/01/25 06:02:05;;;;;;;18.55;12.43;;;-5.30;99.90;;;;;;4992094;28;20066;-74
2022/01/25 06:04:33;;;;;;;21.70;12.82;;;-5.20;99.90;;;;;;4993036;28;20046;-73
2022/01/25 06:07:00;;;;;;;20.85;12.50;;;-5.30;99.90;;;;;;4994026;28;20394;-74
2022/01/25 06:09:28;;;;;;;23.73;13.00;;;-5.30;99.90;;;;;;4975696;28;20494;-75
2022/01/25 06:11:55;;;;;;;19.33;13.38;;;-5.40;99.90;;;;;;4976297;28;20148;-73
2022/01/25 06:14:23;;;;;;;23.75;13.20;;;-5.50;99.90;;;;;;4993103;28;20441;-75
2022/01/25 06:16:50;;;;;;;22.65;13.48;;;-5.60;99.90;;;;;;4993306;28;20054;-74
2022/01/25 06:19:17;;;;;;;26.70;14.38;;;-5.50;99.90;;;;;;4975713;28;20424;-73
2022/01/25 06:21:45;;;;;;;27.48;14.05;;;-5.50;99.90;;;;;;4993437;28;20050;-73
2022/01/25 06:24:12;;;;;;;27.98;14.52;;;-5.40;99.90;;;;;;4993026;28;20490;-73
2022/01/25 06:26:39;;;;;;;23.73;14.15;;;-5.40;99.90;;;;;;4993212;28;20047;-73
2022/01/25 06:29:06;;;;;;;20.80;12.18;;;-5.30;99.90;;;;;;4993054;28;20038;-74
2022/01/25 06:31:34;;;;;;;21.30;12.85;;;-5.20;99.90;;;;;;4993031;28;20125;-77
2022/01/25 06:34:01;;;;;;;18.70;13.68;;;-5.30;99.90;;;;;;4993080;28;20047;-76
2022/01/25 06:36:28;;;;;;;14.95;10.88;;;-5.20;99.90;;;;;;4976135;28;20070;-76
2022/01/25 06:38:56;;;;;;;23.25;13.93;;;-5.10;99.90;;;;;;4975800;28;20046;-73
2022/01/25 06:41:26;;;;;;;22.30;14.97;;;-4.70;99.90;;;;;;4992967;28;20049;-76
2022/01/25 06:43:53;;;;;;;24.38;13.30;;;-4.40;99.90;;;;;;4992737;28;20049;-77
2022/01/25 06:46:21;;;;;;;24.15;13.70;;;-4.40;99.90;;;;;;4975144;28;20105;-76
2022/01/25 06:48:48;;;;;;;26.15;15.07;;;-4.40;99.90;;;;;;4992884;28;20093;-75
2022/01/25 06:51:15;;;;;;;29.00;16.50;;;-4.30;99.90;;;;;;4992646;28;20509;-75
2022/01/25 06:53:43;;;;;;;26.20;16.52;;;-4.10;99.90;;;;;;4971230;28;20057;-78
2022/01/25 06:56:10;;;;;;;25.63;14.85;;;-4.00;99.90;;;;;;4972893;28;20384;-74
2022/01/25 06:58:40;;;;;;;72.35;35.35;;;-4.30;99.90;;;;;;4988258;28;20497;-75
2022/01/25 07:01:08;;;;;;;48.75;28.13;;;-4.40;99.90;;;;;;4956058;28;20113;-77
2022/01/25 07:03:35;;;;;;;32.55;19.55;;;-4.00;99.90;;;;;;4978887;28;20035;-73
2022/01/25 07:06:03;;;;;;;26.30;15.50;;;-4.10;99.90;;;;;;4992530;28;20057;-78
2022/01/25 07:08:30;;;;;;;86.00;43.92;;;-3.90;99.90;;;;;;4992053;28;20046;-73
2022/01/25 07:10:57;;;;;;;56.13;28.67;;;-3.30;99.90;;;;;;4974944;28;20050;-72
2022/01/25 07:13:25;;;;;;;68.30;33.75;;;-3.30;99.90;;;;;;4974730;28;20061;-71
2022/01/25 07:15:53;;;;;;;173.18;79.65;;;-3.40;99.90;;;;;;4991973;28;20086;-73
2022/01/25 07:18:20;;;;;;;72.53;31.17;;;-3.30;99.90;;;;;;4992302;28;20052;-74
2022/01/25 07:20:47;;;;;;;23.83;15.05;;;-3.10;99.90;;;;;;4991293;28;20060;-76
2022/01/25 07:23:14;;;;;;;25.13;16.05;;;-3.10;99.90;;;;;;4991395;28;20034;-73
2022/01/25 07:25:42;;;;;;;29.83;14.95;;;-3.30;99.90;;;;;;4991502;28;20133;-74
2022/01/25 07:28:09;;;;;;;25.35;16.20;;;-3.60;99.90;;;;;;4991538;28;20042;-71
2022/01/25 07:30:36;;;;;;;26.17;17.17;;;-3.40;99.90;;;;;;4991400;28;20066;-71
2022/01/25 07:33:31;;;;;;;29.27;19.00;;;-3.30;99.90;;;;;;4990213;28;20057;-71
2022/01/25 07:36:00;;;;;;;29.58;19.10;;;-3.20;99.90;;;;;;4991595;28;20252;-70
2022/01/25 07:38:28;;;;;;;32.28;17.33;;;-3.20;99.90;;;;;;4991901;28;20126;-71
2022/01/25 07:40:56;;;;;;;20.15;14.98;;;-3.20;99.90;;;;;;4991171;28;20043;-73
2022/01/25 07:43:26;;;;;;;26.02;14.70;;;-3.30;99.90;;;;;;4989087;28;20449;-72
2022/01/25 07:45:59;;;;;;;25.88;14.32;;;-3.10;99.60;;;;;;4974063;28;20049;-70
2022/01/25 07:48:31;;;;;;;25.95;15.80;;;-3.10;99.00;;;;;;4989600;28;20038;-72
2022/01/25 07:51:03;;;;;;;33.75;19.17;;;-2.90;99.20;;;;;;4990280;28;20054;-71
2022/01/25 07:53:31;;;;;;;27.77;17.23;;;-3.10;99.90;;;;;;4990951;28;20038;-74
2022/01/25 07:55:58;;;;;;;27.85;17.65;;;-3.30;99.90;;;;;;5006540;28;20047;-71
2022/01/25 07:58:26;;;;;;;28.80;16.17;;;-3.20;99.90;;;;;;4971481;28;20048;-71
2022/01/25 08:00:53;;;;;;;25.17;15.15;;;-3.10;99.90;;;;;;4974231;28;20041;-71
2022/01/25 08:03:22;;;;;;;26.13;17.10;;;-3.10;99.10;;;;;;4991514;28;20054;-69
2022/01/25 08:06:01;;;;;;;29.70;16.52;;;-3.00;99.00;;;;;;4991206;28;20054;-71
2022/01/25 08:08:48;;;;;;;19.65;14.65;;;-2.90;98.60;;;;;;4986783;28;20101;-71
2022/01/25 08:11:20;;;;;;;24.60;15.32;;;-2.80;97.90;;;;;;4991791;28;20502;-70
2022/01/25 08:13:52;;;;;;;23.65;14.95;;;-2.50;97.30;;;;;;4990275;28;20054;-71
2022/01/25 08:16:33;;;;;;;27.48;16.42;;;-2.50;96.90;;;;;;4988976;28;20078;-71
2022/01/25 08:19:24;;;;;;;23.88;15.32;;;-2.50;96.30;;;;;;4930788;29;20056;-72
2022/01/25 08:22:06;;;;;;;25.52;15.27;;;-2.20;96.40;;;;;;4893018;29;20198;-72
2022/01/25 08:24:54;;;;;;;24.45;15.45;;;-2.10;96.10;;;;;;4893610;29;20059;-73
2022/01/25 08:27:35;;;;;;;26.25;17.10;;;-2.10;95.70;;;;;;4885405;29;20048;-72
2022/01/25 08:30:19;;;;;;;86.30;39.40;;;-1.80;98.60;;;;;;4841396;29;20060;-72
2022/01/25 08:33:03;;;;;;;32.20;18.50;;;-1.40;98.30;;;;;;4835070;29;20470;-70
2022/01/25 08:35:44;;;;;;;26.48;13.98;;;-1.30;96.40;;;;;;4829831;29;20093;-73
2022/01/25 08:38:28;;;;;;;25.20;14.35;;;-1.70;95.50;;;;;;4838466;29;20108;-72
2022/01/25 08:40:57;;;;;;;22.63;14.30;;;-1.30;95.80;;;;;;4795265;29;20050;-74
2022/01/25 08:43:41;;;;;;;22.02;16.02;;;-1.10;93.40;;;;;;4812757;29;20064;-73
2022/01/25 08:46:27;;;;;;;26.58;15.18;;;-1.00;92.40;;;;;;4822699;29;20070;-73
2022/01/25 08:48:58;;;;;;;27.25;16.30;;;-1.10;91.70;;;;;;4822516;29;20047;-76
2022/01/25 08:51:34;;;;;;;31.08;16.75;;;-1.50;93.20;;;;;;4792462;29;20047;-75
2022/01/25 08:54:11;;;;;;;29.77;16.65;;;-1.30;93.30;;;;;;4821700;29;20463;-72
2022/01/25 08:57:07;;;;;;;31.58;17.38;;;-0.80;92.60;;;;;;4822595;29;20058;-75
2022/01/25 08:59:54;;;;;;;32.10;17.88;;;-0.40;91.10;;;;;;4807696;29;20550;-77
2022/01/25 09:02:22;;;;;;;31.90;18.13;;;-0.60;89.60;;;;;;4840383;29;20054;-73
2022/01/25 09:04:49;;;;;;;29.13;18.13;;;-0.90;90.60;;;;;;4852879;29;20060;-76
2022/01/25 09:07:17;;;;;;;27.92;16.83;;;-0.80;90.10;;;;;;4889797;29;20066;-77
2022/01/25 09:09:44;;;;;;;28.05;16.60;;;-0.90;90.60;;;;;;4901783;29;20138;-76
2022/01/25 09:12:11;;;;;;;26.67;17.75;;;-0.80;90.10;;;;;;4914710;29;20060;-77
2022/01/25 09:14:39;;;;;;;31.45;17.55;;;-0.90;89.10;;;;;;4914757;29;20420;-74
2022/01/25 09:17:09;;;;;;;28.60;17.05;;;-0.70;89.00;;;;;;4915198;29;20052;-74
2022/01/25 09:19:38;;;;;;;36.58;16.45;;;-0.50;86.70;;;;;;4899006;29;20088;-76
2022/01/25 09:22:07;;;;;;;27.13;17.60;;;-0.40;85.20;;;;;;4974434;28;20065;-77
2022/01/25 09:24:37;;;;;;;32.65;19.27;;;-0.40;83.90;;;;;;4990020;28;20057;-73
2022/01/25 09:27:07;;;;;;;29.33;17.23;;;-0.30;84.00;;;;;;4994057;28;20624;-71
2022/01/25 09:29:35;;;;;;;23.85;16.05;;;-0.30;83.20;;;;;;4993924;28;20373;-76
2022/01/25 09:32:04;;;;;;;28.70;15.65;;;0.10;83.20;;;;;;4994057;28;20050;-72
2022/01/25 09:34:31;;;;;;;23.83;16.00;;;0.50;81.20;;;;;;4975774;28;20042;-72
2022/01/25 09:36:59;;;;;;;30.70;16.00;;;0.60;84.00;;;;;;4976391;28;20046;-74
2022/01/25 09:39:26;;;;;;;26.00;15.90;;;0.90;79.70;;;;;;4987972;28;20426;-76
2022/01/25 09:41:54;;;;;;;27.98;15.52;;;0.70;77.60;;;;;;4986257;28;20391;-76
2022/01/25 09:44:23;;;;;;;24.00;15.70;;;0.90;76.80;;;;;;4993851;28;20058;-77
2022/01/25 09:46:55;;;;;;;25.63;16.67;;;1.00;75.90;;;;;;4976495;28;20054;-75
2022/01/25 09:49:23;;;;;;;28.88;15.20;;;0.80;75.60;;;;;;4993667;28;20042;-77
2022/01/25 09:51:52;;;;;;;20.75;14.38;;;0.80;74.30;;;;;;4994027;28;20050;-76
2022/01/25 09:54:19;;;;;;;22.23;15.20;;;0.80;73.70;;;;;;4975841;28;20513;-77
2022/01/25 09:56:47;;;;;;;26.67;16.77;;;1.10;76.60;;;;;;4993639;28;20371;-77
2022/01/25 09:59:15;;;;;;;88.13;41.65;;;1.70;92.80;;;;;;4993617;28;20049;-73
2022/01/25 10:01:45;;;;;;;32.45;17.50;;;2.00;87.70;;;;;;4993835;28;20053;-73
2022/01/25 10:04:37;;;;;;;24.13;14.15;;;2.10;74.60;;;;;;4993335;28;20434;-75
2022/01/25 10:07:05;;;;;;;20.30;13.45;;;2.30;70.90;;;;;;4993497;28;20054;-77
2022/01/25 10:09:37;;;;;;;24.45;14.02;;;1.90;70.20;;;;;;4992819;28;20453;-77
2022/01/25 10:12:23;;;;;;;22.08;12.82;;;2.00;69.30;;;;;;4976431;28;20042;-76
2022/01/25 10:15:00;;;;;;;39.88;22.85;;;2.20;67.50;;;;;;4974401;28;20046;-75
2022/01/25 10:17:32;;;;;;;52.75;27.92;;;2.90;87.10;;;;;;4974193;28;20054;-76
2022/01/25 10:20:00;;;;;;;22.73;13.73;;;3.30;77.00;;;;;;5004965;28;20041;-74
2022/01/25 10:22:39;;;;;;;20.20;12.75;;;2.70;66.70;;;;;;4991898;28;20101;-74
2022/01/25 10:25:07;;;;;;;21.83;13.88;;;2.30;65.70;;;;;;4990663;28;20050;-73
2022/01/25 10:28:02;;;;;;;19.63;12.80;;;2.40;66.20;;;;;;4974318;28;20046;-74
2022/01/25 10:30:35;;;;;;;21.65;13.98;;;2.00;65.80;;;;;;5006786;28;20136;-74
2022/01/25 10:33:15;;;;;;;20.10;12.27;;;2.20;66.40;;;;;;4992496;28;20070;-71
2022/01/25 10:35:42;;;;;;;19.35;12.57;;;2.10;64.90;;;;;;4988149;28;20054;-71
2022/01/25 10:38:28;;;;;;;17.10;12.68;;;2.30;64.40;;;;;;4990443;28;20139;-73
2022/01/25 10:41:07;;;;;;;18.23;12.48;;;2.60;63.40;;;;;;4992131;28;20050;-73
2022/01/25 10:43:37;;;;;;;19.05;12.30;;;3.00;62.70;;;;;;4992021;28;20042;-73
2022/01/25 10:46:22;;;;;;;25.08;11.88;;;2.10;63.50;;;;;;4991992;28;20069;-75
2022/01/25 10:49:00;;;;;;;19.80;12.13;;;2.30;63.60;;;;;;4991473;28;20037;-74
2022/01/25 10:51:29;;;;;;;17.73;11.68;;;2.40;62.30;;;;;;4974747;28;20042;-72
2022/01/25 10:54:03;;;;;;;21.35;13.10;;;2.20;62.30;;;;;;4974414;28;20046;-73
2022/01/25 10:56:42;;;;;;;16.60;11.98;;;2.00;63.00;;;;;;4976468;28;20027;-74
2022/01/25 10:59:13;;;;;;;18.02;12.85;;;2.60;63.10;;;;;;4992045;28;20050;-77
2022/01/25 11:01:55;;;;;;;20.33;11.90;;;2.80;61.20;;;;;;4974863;28;20125;-77
2022/01/25 11:04:28;;;;;;;19.55;12.40;;;2.90;60.20;;;;;;4991258;28;20042;-73
2022/01/25 11:07:08;;;;;;;21.65;12.90;;;3.00;59.80;;;;;;4991153;28;20552;-77
2022/01/25 11:09:42;;;;;;;25.30;13.60;;;3.20;59.40;;;;;;4991390;28;20092;-76
2022/01/25 11:12:14;;;;;;;18.45;12.10;;;3.60;59.10;;;;;;4991546;28;20508;-74
2022/01/25 11:14:57;;;;;;;20.08;12.98;;;3.60;57.90;;;;;;4991337;28;20057;-74
2022/01/25 11:17:28;;;;;;;20.70;12.20;;;4.50;56.20;;;;;;4991390;28;20050;-73
2022/01/25 11:19:58;;;;;;;18.17;11.52;;;5.10;54.10;;;;;;4990993;28;20045;-75
2022/01/25 11:22:26;;;;;;;18.85;11.90;;;5.10;54.00;;;;;;4989945;28;20053;-74
2022/01/25 11:24:59;;;;;;;19.58;12.40;;;5.40;53.40;;;;;;4990421;28;20038;-74
2022/01/25 11:27:29;;;;;;;16.83;11.18;;;5.70;52.00;;;;;;4989918;28;20520;-75
2022/01/25 11:30:05;;;;;;;16.80;11.43;;;6.70;50.30;;;;;;4973566;28;20054;-78
2022/01/25 11:32:38;;;;;;;16.75;10.90;;;6.90;49.30;;;;;;4975908;28;20050;-73
2022/01/25 11:35:10;;;;;;;15.85;10.75;;;7.10;49.50;;;;;;4991013;28;20054;-74
2022/01/25 11:37:41;;;;;;;18.23;10.82;;;6.40;49.60;;;;;;4991830;28;20074;-78
2022/01/25 11:40:34;;;;;;;47.85;18.88;;;6.70;49.70;;;;;;4987048;28;20073;-77
2022/01/25 11:43:11;;;;;;;17.88;9.82;;;6.90;48.20;;;;;;4973923;28;20065;-76
2022/01/25 11:45:45;;;;;;;16.35;10.40;;;7.30;47.30;;;;;;4984672;28;20046;-75
2022/01/25 11:48:12;;;;;;;15.75;10.32;;;7.10;46.20;;;;;;4990699;28;20050;-76
2022/01/25 11:50:43;;;;;;;15.40;10.23;;;5.60;48.40;;;;;;4991411;28;20130;-73
2022/01/25 11:53:18;;;;;;;14.55;10.48;;;5.00;50.00;;;;;;4973995;28;20065;-73
2022/01/25 11:55:51;;;;;;;14.48;10.02;;;4.60;51.20;;;;;;4991451;28;20043;-73
2022/01/25 11:58:32;;;;;;;17.98;11.23;;;4.60;50.90;;;;;;4991267;28;20042;-75
2022/01/25 12:01:03;;;;;;;16.38;10.75;;;4.80;50.60;;;;;;4961845;28;20052;-76
2022/01/25 12:03:32;;;;;;;15.43;9.75;;;4.40;50.00;;;;;;4995135;28;20034;-73
2022/01/25 12:06:04;;;;;;;13.95;9.98;;;4.70;49.20;;;;;;4977161;28;20056;-74
2022/01/25 12:08:40;;;;;;;10.35;7.72;;;4.60;49.90;;;;;;4994023;28;20061;-76
2022/01/25 12:11:41;;;;;;;10.65;6.95;;;4.70;45.60;;;;;;4994052;28;20049;-75
2022/01/25 12:14:25;;;;;;;9.35;6.40;;;5.00;44.10;;;;;;4993010;28;20042;-76
2022/01/25 12:17:11;;;;;;;11.18;7.22;;;5.00;43.60;;;;;;4992533;28;20487;-77
2022/01/25 12:19:50;;;;;;;14.52;9.65;;;5.10;45.10;;;;;;4993202;28;20501;-78
2022/01/25 12:22:35;;;;;;;16.00;9.90;;;5.40;48.90;;;;;;4975693;28;20070;-77
2022/01/25 12:25:18;;;;;;;17.98;10.20;;;5.70;48.00;;;;;;4994570;28;20052;-75
2022/01/25 12:27:54;;;;;;;15.95;11.02;;;5.50;48.40;;;;;;4995141;28;20053;-79
2022/01/25 12:30:33;;;;;;;15.43;10.30;;;4.60;49.50;;;;;;4977104;28;20433;-74
2022/01/25 12:33:15;;;;;;;17.30;10.23;;;4.80;49.50;;;;;;4961837;28;20053;-77
2022/01/25 12:35:50;;;;;;;16.25;9.80;;;5.10;48.70;;;;;;4976898;28;20441;-72
2022/01/25 12:38:25;;;;;;;14.15;9.18;;;5.80;47.30;;;;;;4977056;28;20054;-73
2022/01/25 12:41:00;;;;;;;14.02;8.93;;;6.10;46.70;;;;;;4994718;28;20038;-73
2022/01/25 12:43:38;;;;;;;14.07;9.93;;;6.20;46.20;;;;;;4994720;28;20118;-74
2022/01/25 12:46:18;;;;;;;15.32;9.82;;;6.50;46.50;;;;;;4994303;28;20046;-74
2022/01/25 12:48:52;;;;;;;15.27;9.75;;;6.70;44.50;;;;;;4994319;28;20107;-73
2022/01/25 12:51:27;;;;;;;19.73;10.70;;;7.00;44.80;;;;;;4994194;28;20406;-71
2022/01/25 12:53:59;;;;;;;19.85;10.10;;;6.50;45.70;;;;;;4994596;28;20114;-73
2022/01/25 12:56:34;;;;;;;16.25;10.27;;;6.30;46.60;;;;;;4977066;28;20053;-79
2022/01/25 12:59:06;;;;;;;22.40;10.40;;;7.20;45.20;;;;;;4973362;28;20086;-73
2022/01/25 13:01:37;;;;;;;17.02;10.38;;;7.90;44.20;;;;;;4975286;28;20047;-74
2022/01/25 13:04:07;;;;;;;15.93;9.80;;;7.80;43.50;;;;;;4975912;28;20490;-73
2022/01/25 13:06:35;;;;;;;16.67;9.98;;;7.90;42.70;;;;;;4993468;28;20371;-74
2022/01/25 13:09:15;;;;;;;14.25;6.60;;;7.40;43.20;;;;;;4993212;28;20169;-73
2022/01/25 13:17:12;;;;;;;13.85;8.88;;;8.10;43.00;;;;;;4993737;28;20394;-74
2022/01/25 13:19:58;;;;;;;9.25;5.75;;;7.10;41.80;;;;;;4990910;28;20053;-73
2022/01/25 13:22:36;;;;;;;13.18;6.00;;;4.90;41.20;;;;;;4956877;28;20043;-76
2022/01/25 13:27:51;;;;;;;10.73;6.57;;;4.50;40.80;;;;;;4993715;28;20065;-71
2022/01/25 13:30:45;;;;;;;11.35;7.03;;;5.20;41.10;;;;;;4993764;28;20049;-71
2022/01/25 13:33:18;;;;;;;11.23;6.75;;;4.50;41.20;;;;;;4993880;28;20042;-74
2022/01/25 13:35:53;;;;;;;13.48;7.00;;;4.50;40.70;;;;;;4993591;28;20458;-73
2022/01/25 13:38:24;;;;;;;11.68;6.95;;;4.60;41.80;;;;;;4993146;28;20162;-73
2022/01/25 13:41:00;;;;;;;11.45;6.85;;;5.50;42.00;;;;;;4993360;28;20046;-72
2022/01/25 13:45:43;;;;;;;9.90;5.57;;;6.70;40.80;;;;;;4992115;28;20054;-76
2022/01/25 13:46:23;;;;;;;10.75;6.47;;;6.80;39.00;;;;;;4992991;28;20097;-75
2022/01/25 13:48:53;;;;;;;9.40;5.93;;;7.70;38.60;;;;;;4993436;28;20038;-74
2022/01/25 13:51:24;;;;;;;14.15;6.70;;;6.50;39.00;;;;;;4993608;28;20097;-76
2022/01/25 13:53:55;;;;;;;13.65;6.13;;;7.20;38.90;;;;;;4992924;28;20126;-78
2022/01/25 13:56:26;;;;;;;12.77;6.20;;;6.50;38.50;;;;;;4975876;28;20046;-74
2022/01/25 13:58:53;;;;;;;;;;;7.00;38.60;;;;;;4993728;28;20057;-77
2022/01/25 14:01:23;;;;;;;12.63;5.95;;;7.30;38.00;;;;;;4993006;28;20404;-77
2022/01/25 14:04:00;;;;;;;10.35;6.18;;;6.90;38.10;;;;;;4992864;28;20491;-74
2022/01/25 14:06:43;;;;;;;41.83;25.98;;;7.00;38.80;;;;;;4992767;28;20057;-76
2022/01/25 14:09:27;;;;;;;9.68;5.70;;;7.90;43.30;;;;;;5005735;28;20486;-75
2022/01/25 14:25:47;;;;;;;6.97;4.22;;;7.50;37.10;;;;;;4974419;28;20046;-74
2022/01/25 14:28:20;;;;;;;7.88;5.05;;;6.40;35.40;;;;;;4991220;28;20470;-77
2022/01/25 14:30:50;;;;;;;8.95;4.90;;;5.60;36.40;;;;;;4990355;28;20038;-79
2022/01/25 14:33:21;;;;;;;;;;;5.90;36.90;;;;;;4984931;28;20042;-75
2022/01/25 14:35:56;;;;;;;11.15;6.38;;;6.10;36.60;;;;;;4986913;28;19968;-78
2022/01/25 14:38:29;;;;;;;11.38;5.80;;;6.40;37.70;;;;;;4989485;28;20047;-75
2022/01/25 14:41:03;;;;;;;8.77;5.40;;;6.60;36.50;;;;;;4988739;28;20084;-75
2022/01/25 14:43:36;;;;;;;11.02;6.13;;;5.70;37.30;;;;;;4987120;28;20035;-75
2022/01/25 14:46:05;;;;;;;11.85;5.75;;;6.50;38.10;;;;;;4990544;28;20050;-72
2022/01/25 14:48:36;;;;;;;9.05;5.75;;;6.80;36.70;;;;;;4971872;28;20085;-76
2022/01/25 14:51:06;;;;;;;;;;;5.80;37.00;;;;;;4987269;28;20080;-74
2022/01/25 14:53:33;;;;;;;15.02;6.57;;;6.20;38.40;;;;;;4990652;28;19925;-75
2022/01/25 14:56:02;;;;;;;9.43;5.97;;;7.40;37.20;;;;;;4981351;28;20399;-74
2022/01/25 15:01:18;;;;;;;10.45;6.47;;;6.30;37.40;;;;;;4974838;28;20038;-74
2022/01/25 15:03:45;;;;;;;13.70;6.50;;;5.70;39.00;;;;;;4975141;28;20482;-75
2022/01/25 15:06:15;;;;;;;13.38;6.82;;;4.60;39.20;;;;;;4991380;28;21140;-76